Time;durP1;ratioP1;P1;durP2;ratioP2;P2;SDS_P1;SDS_P2;PMS_P1;PMS_P2;Temp;Humidity;BMP_temperature;BMP_pressure;BME280_temperature;BME280_humidity;BME280_pressure;Samples;Min_cycle;Max_cycle;Signal;HPM_P1;HPM_P2
2022/05/23 00:02:12;;;;;;;;;7.00;7.00;;;;;20.13;59.52;100321.63;5014233;28;49807;-71
2022/05/23 00:04:38;;;;;;;;;10.00;8.75;;;;;20.11;59.54;100335.91;5014556;28;49580;-70
2022/05/23 00:07:11;;;;;;;;;9.25;8.75;;;;;20.22;59.48;100356.06;5013979;28;50618;-71
2022/05/23 00:09:37;;;;;;;;;9.00;9.00;;;;;20.11;59.63;100322.59;5014329;28;49774;-71
2022/05/23 00:12:03;;;;;;;;;9.00;9.00;;;;;20.18;59.52;100327.75;5014229;28;49777;-72
2022/05/23 00:14:28;;;;;;;;;7.00;7.00;;;;;20.16;59.25;100344.66;5014578;28;49968;-71
2022/05/23 00:16:53;;;;;;;;;9.50;8.25;;;;;20.23;59.38;100346.25;5013947;28;50487;-71
2022/05/23 00:19:19;;;;;;;;;8.00;8.00;;;;;20.14;59.13;100342.03;5014300;28;49807;-71
2022/05/23 00:21:47;;;;;;;;;7.25;7.25;;;;;20.27;59.33;100339.97;5014083;28;49612;-71
2022/05/23 00:24:14;;;;;;;;;5.00;5.00;;;;;20.21;59.39;100329.44;5014410;28;49796;-71
2022/05/23 00:26:42;;;;;;;;;8.00;7.25;;;;;20.28;59.34;100329.25;5014022;28;50640;-71
2022/05/23 00:29:08;;;;;;;;;7.50;6.25;;;;;20.12;59.65;100301.22;5013937;28;49672;-71
2022/05/23 00:31:33;;;;;;;;;7.75;6.75;;;;;20.08;59.55;100299.56;5013973;28;49777;-70
2022/05/23 00:36:43;;;;;;;;;7.00;7.00;;;;;20.21;59.49;100321.44;5013578;28;50271;-70
2022/05/23 00:39:09;;;;;;;;;5.50;5.00;;;;;20.22;59.64;100309.88;5013889;28;49737;-71
2022/05/23 00:44:23;;;;;;;;;6.75;6.75;;;;;20.18;59.61;100276.22;5027076;28;49793;-72
2022/05/23 00:46:56;;;;;;;;;6.00;6.00;;;;;20.14;59.83;100275.41;5026590;28;52662;-70
2022/05/23 00:49:36;;;;;;;;;8.00;6.75;;;;;19.98;59.76;100250.97;5026045;28;49650;-71
2022/05/23 00:52:05;;;;;;;;;6.50;5.50;;;;;20.17;59.81;100277.13;5032919;28;49812;-70
2022/05/23 00:54:39;;;;;;;;;7.00;4.75;;;;;20.05;59.86;100249.00;5032860;28;49723;-70
2022/05/23 00:57:05;;;;;;;;;4.50;4.50;;;;;19.69;60.36;100192.25;5032488;28;50587;-70
2022/05/23 00:59:32;;;;;;;;;6.75;6.75;;;;;20.11;60.35;100261.31;5032703;28;49586;-70
2022/05/23 01:01:59;;;;;;;;;6.50;6.50;;;;;19.96;60.20;100233.25;5032619;28;49742;-70
2022/05/23 01:04:26;;;;;;;;;7.50;5.50;;;;;19.82;60.30;100207.00;5032810;28;50447;-70
2022/05/23 01:06:52;;;;;;;;;7.50;6.50;;;;;19.86;60.17;100213.09;5032131;28;49783;-70
2022/05/23 01:09:20;;;;;;;;;4.75;3.75;;;;;20.13;60.42;100256.81;5032495;28;49611;-70
2022/05/23 01:11:45;;;;;;;;;7.00;7.00;;;;;19.96;60.47;100219.94;5032697;28;49862;-70
2022/05/23 01:14:11;;;;;;;;;6.25;6.00;;;;;20.04;60.27;100236.59;5032778;28;49982;-71
2022/05/23 01:16:37;;;;;;;;;7.25;6.75;;;;;19.92;60.45;100210.28;5018238;28;51434;-70
2022/05/23 01:19:02;;;;;;;;;6.00;5.00;;;;;20.01;60.67;100221.56;5036129;28;49636;-70
2022/05/23 01:21:53;;;;;;;;;4.00;3.00;;;;;19.97;60.53;100208.38;5035658;28;49701;-71
2022/05/23 01:24:55;;;;;;;;;4.25;4.25;;;;;19.93;60.86;100198.72;5036072;28;49813;-70
2022/05/23 01:27:21;;;;;;;;;6.25;6.25;;;;;19.91;60.77;100197.88;5032399;28;50392;-71
2022/05/23 01:29:46;;;;;;;;;5.50;5.50;;;;;19.83;61.23;100176.78;5035663;28;49727;-70
2022/05/23 01:32:12;;;;;;;;;6.00;6.00;;;;;19.83;61.14;100175.91;5035642;28;49814;-70
2022/05/23 01:34:38;;;;;;;;;5.00;5.00;;;;;19.76;61.31;100176.97;5036147;28;49689;-70
2022/05/23 01:37:04;;;;;;;;;7.00;6.00;;;;;19.77;61.62;100168.94;5035259;28;51772;-70
2022/05/23 01:39:29;;;;;;;;;5.75;5.00;;;;;19.67;61.55;100139.00;5035874;28;49725;-71
2022/05/23 01:41:55;;;;;;;;;7.00;5.25;;;;;19.77;61.90;100149.41;5018060;28;49833;-70
2022/05/23 01:44:20;;;;;;;;;5.00;5.00;;;;;19.78;61.92;100154.69;5036038;28;49725;-70
2022/05/23 01:46:45;;;;;;;;;7.00;7.00;;;;;19.76;61.72;100151.22;5035569;28;50435;-70
2022/05/23 01:49:11;;;;;;;;;9.00;9.00;;;;;19.76;61.91;100135.22;5035633;28;49863;-69
2022/05/23 01:51:37;;;;;;;;;7.00;7.00;;;;;19.65;61.73;100110.69;5035547;28;49820;-70
2022/05/23 01:54:02;;;;;;;;;11.25;10.00;;;;;19.63;61.83;100100.06;5035883;28;49688;-70
2022/05/23 01:56:27;;;;;;;;;8.75;8.75;;;;;19.25;61.90;100029.19;5035500;28;50503;-70
2022/05/23 02:01:37;;;;;;;;;10.25;9.00;;;;;19.71;62.07;100102.53;5035949;28;49745;-70
2022/05/23 02:04:03;;;;;;;;;9.00;9.00;;;;;19.68;61.83;100113.25;5035683;28;49659;-70
2022/05/23 02:06:28;;;;;;;;;10.50;9.75;;;;;19.68;62.17;100110.59;5035001;28;50292;-70
2022/05/23 02:08:54;;;;;;;;;11.25;10.75;;;;;19.65;62.11;100111.56;5035348;28;49610;-71
2022/05/23 02:11:19;;;;;;;;;6.25;6.25;;;;;19.53;62.09;100100.34;5035402;28;49644;-71
2022/05/23 02:13:45;;;;;;;;;10.75;10.00;;;;;19.43;62.44;100084.59;5035467;28;49928;-70
2022/05/23 02:16:11;;;;;;;;;10.00;10.00;;;;;19.38;62.61;100077.63;5034910;28;50235;-71
2022/05/23 02:18:37;;;;;;;;;12.50;8.75;;;;;19.56;62.38;100118.91;5035099;28;49840;-70
2022/05/23 02:21:02;;;;;;;;;12.25;10.75;;;;;19.59;62.43;100122.38;5034889;28;49753;-70
2022/05/23 02:23:28;;;;;;;;;8.75;8.00;;;;;19.62;62.55;100124.09;5035415;28;49780;-70
2022/05/23 02:25:53;;;;;;;;;9.25;6.25;;;;;19.42;62.72;100096.16;5034915;28;50579;-72
2022/05/23 02:28:19;;;;;;;;;9.75;9.25;;;;;19.47;62.82;100113.78;5035198;28;49578;-70
2022/05/23 02:30:48;;;;;;;;;6.00;6.00;;;;;19.42;62.65;100114.78;5035140;28;49912;-71
2022/05/23 02:33:14;;;;;;;;;7.75;7.75;;;;;19.40;62.99;100108.66;5035063;28;50188;-72
2022/05/23 02:35:40;;;;;;;;;7.00;6.25;;;;;19.52;63.27;100134.06;5034570;28;49863;-70
2022/05/23 02:38:05;;;;;;;;;7.75;7.75;;;;;19.41;63.38;100106.84;5034865;28;49852;-71
2022/05/23 02:40:31;;;;;;;;;8.25;8.25;;;;;19.56;63.54;100140.22;5034812;28;50032;-71
2022/05/23 02:42:56;;;;;;;;;8.25;6.50;;;;;19.25;63.15;100085.06;5034930;28;49824;-70
2022/05/23 02:45:22;;;;;;;;;8.00;8.00;;;;;19.52;63.09;100126.09;5034619;28;50371;-70
2022/05/23 02:47:47;;;;;;;;;7.00;7.00;;;;;19.52;63.12;100125.22;5034620;28;49609;-70
2022/05/23 02:50:13;;;;;;;;;7.00;7.00;;;;;19.48;63.52;100120.84;5034000;28;49871;-72
2022/05/23 02:52:40;;;;;;;;;6.00;6.00;;;;;19.51;63.59;100132.31;5035049;28;49718;-71
2022/05/23 02:55:07;;;;;;;;;6.00;6.00;;;;;19.50;63.69;100141.22;5034332;28;50440;-70
2022/05/23 02:57:32;;;;;;;;;6.00;6.00;;;;;19.48;64.20;100145.69;5034431;28;49794;-71
2022/05/23 02:59:57;;;;;;;;;9.00;8.00;;;;;19.44;64.33;100134.25;5028254;28;49620;-70
2022/05/23 03:05:08;;;;;;;;;7.50;6.25;;;;;19.37;64.49;100131.78;5034112;28;49721;-70
2022/05/23 03:07:33;;;;;;;;;6.25;6.25;;;;;19.21;64.70;100102.03;5034268;28;49576;-70
2022/05/23 03:09:59;;;;;;;;;7.50;7.50;;;;;19.36;64.78;100140.69;5016916;28;49564;-70
2022/05/23 03:12:26;;;;;;;;;6.75;6.75;;;;;19.34;64.89;100129.22;5034606;28;49669;-70
2022/05/23 03:14:52;;;;;;;;;8.25;7.00;;;;;19.39;65.19;100144.13;5034231;28;50480;-71
2022/05/23 03:17:17;;;;;;;;;5.75;5.75;;;;;19.22;65.15;100098.47;5034230;28;49713;-70
2022/05/23 03:19:42;;;;;;;;;7.75;7.00;;;;;19.43;65.61;100143.16;5034604;28;50708;-70
2022/05/23 03:27:45;;;;;;;;;8.75;7.75;;;;;19.40;65.78;100129.06;5034050;28;49848;-70
2022/05/23 03:30:11;;;;;;;;;6.00;6.00;;;;;19.29;65.62;100097.38;5034121;28;49836;-70
2022/05/23 03:32:39;;;;;;;;;8.25;7.25;;;;;19.35;65.75;100099.03;5033887;28;49895;-70
2022/05/23 03:35:05;;;;;;;;;8.25;7.00;;;;;19.38;65.62;100086.50;5033665;28;49608;-70
2022/05/23 03:37:30;;;;;;;;;9.50;9.00;;;;;19.22;65.62;100049.69;5033283;28;49796;-70
2022/05/23 03:39:55;;;;;;;;;13.00;9.25;;;;;19.21;66.20;100054.16;5033980;28;49754;-70
2022/05/23 03:42:21;;;;;;;;;11.00;11.00;;;;;19.27;66.37;100071.72;5033990;28;49907;-70
2022/05/23 03:44:46;;;;;;;;;11.25;9.25;;;;;19.10;66.51;100054.38;5033772;28;50557;-70
2022/05/23 03:47:12;;;;;;;;;11.00;10.00;;;;;19.33;66.54;100093.75;5033653;28;49740;-70
2022/05/23 03:49:37;;;;;;;;;14.00;13.00;;;;;19.14;66.46;100065.84;5033850;28;49673;-70
2022/05/23 03:52:03;;;;;;;;;15.00;13.00;;;;;19.31;66.74;100089.38;5033687;28;49820;-70
2022/05/23 03:54:29;;;;;;;;;16.75;16.75;;;;;19.08;66.82;100044.72;5033445;28;51423;-70
2022/05/23 03:56:59;;;;;;;;;23.75;22.50;;;;;18.96;66.59;100021.97;5033488;28;49646;-70
2022/05/23 03:59:26;;;;;;;;;23.75;19.75;;;;;18.77;66.85;99992.28;5033532;28;49867;-69
2022/05/23 04:01:54;;;;;;;;;18.00;18.00;;;;;19.12;66.97;100055.25;5033712;28;49732;-69
2022/05/23 04:04:20;;;;;;;;;28.00;25.50;;;;;19.03;67.01;100059.94;5033286;28;49850;-70
2022/05/23 04:06:46;;;;;;;;;24.25;21.50;;;;;19.09;67.12;100081.91;5033292;28;50385;-70
2022/05/23 04:09:12;;;;;;;;;22.00;21.50;;;;;19.09;67.24;100078.38;5033582;28;49832;-70
2022/05/23 04:11:37;;;;;;;;;25.50;24.00;;;;;19.00;67.23;100055.53;5033535;28;49995;-70
2022/05/23 04:14:02;;;;;;;;;29.50;29.50;;;;;19.02;67.51;100059.06;5033242;28;49876;-70
2022/05/23 04:16:29;;;;;;;;;23.25;22.25;;;;;18.93;67.58;100032.69;5033233;28;49728;-70
2022/05/23 04:18:55;;;;;;;;;26.25;24.25;;;;;19.06;67.54;100042.09;5033437;28;49777;-70
2022/05/23 04:21:21;;;;;;;;;28.50;27.00;;;;;18.63;67.69;99964.28;5026850;28;49911;-70
2022/05/23 04:23:46;;;;;;;;;26.75;25.25;;;;;19.04;67.69;100033.28;5033072;28;50596;-70
2022/05/23 04:26:12;;;;;;;;;26.75;23.75;;;;;19.06;67.71;100010.16;5033064;28;49660;-71
2022/05/23 04:28:41;;;;;;;;;23.00;21.75;;;;;19.07;67.98;100014.56;5033008;28;49650;-70
2022/05/23 04:31:07;;;;;;;;;20.00;18.75;;;;;18.90;68.12;99966.25;5033352;28;49868;-71
2022/05/23 04:36:17;;;;;;;;;18.25;17.00;;;;;18.82;70.36;99949.66;5032758;28;49841;-70
2022/05/23 04:38:43;;;;;;;;;18.75;18.75;;;;;19.03;71.37;99983.66;5033055;28;49772;-70
2022/05/23 04:41:09;;;;;;;;;21.25;18.50;;;;;18.85;71.31;99965.50;5033088;28;49787;-71
2022/05/23 04:43:34;;;;;;;;;18.50;17.50;;;;;19.03;71.41;99981.00;5032773;28;50252;-73
2022/05/23 04:45:59;;;;;;;;;17.00;15.50;;;;;18.97;71.40;99983.81;5020455;28;49871;-71
2022/05/23 04:51:20;;;;;;;;;15.00;15.00;;;;;18.88;71.29;99973.41;4962671;28;49846;-71
2022/05/23 04:53:46;;;;;;;;;16.00;13.25;;;;;18.79;71.23;99957.69;5028981;28;49882;-70
2022/05/23 04:56:12;;;;;;;;;11.00;10.50;;;;;19.10;71.77;100005.63;5032512;28;49683;-71
2022/05/23 04:58:37;;;;;;;;;14.00;14.00;;;;;19.12;71.61;100010.03;5032776;28;49813;-70
2022/05/23 05:01:04;;;;;;;;;10.00;10.00;;;;;19.20;71.49;100006.25;5033068;28;49769;-70
2022/05/23 05:03:29;;;;;;;;;9.50;9.50;;;;;19.19;72.15;99986.78;5032537;28;50599;-70
2022/05/23 05:05:54;;;;;;;;;10.50;9.75;;;;;19.19;71.77;99985.91;5032178;28;49680;-70
2022/05/23 05:08:20;;;;;;;;;13.25;10.50;;;;;18.86;71.46;99936.22;5032604;28;49819;-71
2022/05/23 05:10:46;;;;;;;;;11.25;10.75;;;;;19.23;71.67;99979.59;5032854;28;49898;-71
2022/05/23 05:13:11;;;;;;;;;10.75;9.00;;;;;19.12;71.91;99962.13;5032506;28;49764;-70
2022/05/23 05:15:37;;;;;;;;;16.00;13.00;;;;;19.14;72.11;99968.28;5032811;28;49963;-71
2022/05/23 05:18:03;;;;;;;;;12.50;11.75;;;;;19.17;71.30;99985.94;5032452;28;49771;-70
2022/05/23 05:20:29;;;;;;;;;13.00;10.00;;;;;19.14;72.14;99967.41;5032568;28;49760;-71
2022/05/23 05:22:55;;;;;;;;;12.50;12.25;;;;;19.04;72.49;99950.81;5032233;28;49669;-70
2022/05/23 05:25:20;;;;;;;;;13.25;13.25;;;;;19.00;72.70;99946.47;5032477;28;49884;-71
2022/05/23 05:27:47;;;;;;;;;12.50;11.00;;;;;19.14;72.83;99954.09;5032413;28;50110;-72
2022/05/23 05:30:16;;;;;;;;;13.00;13.00;;;;;19.24;72.79;99954.72;5032343;28;49801;-72
2022/05/23 05:33:02;;;;;;;;;14.50;12.75;;;;;19.21;71.98;99933.53;5032147;28;50983;-70
2022/05/23 05:35:57;;;;;;;;;10.75;10.75;;;;;19.28;72.09;99919.13;5032027;28;49820;-67
2022/05/23 05:38:40;;;;;;;;;13.75;11.00;;;;;19.33;71.92;99907.44;5004312;28;49825;-70
2022/05/23 05:41:11;;;;;;;;;9.50;9.50;;;;;19.33;71.95;99901.25;5027177;28;50026;-68
2022/05/23 05:43:43;;;;;;;;;11.00;11.00;;;;;19.35;71.78;99905.59;5031826;28;50466;-73
2022/05/23 05:46:25;;;;;;;;;12.00;12.00;;;;;19.44;71.95;99920.44;5032230;28;49975;-72
2022/05/23 05:48:54;;;;;;;;;12.75;12.00;;;;;19.52;71.91;99954.84;5032282;28;49751;-70
2022/05/23 05:51:22;;;;;;;;;14.50;11.25;;;;;19.59;72.72;99973.28;5032293;28;49902;-72
2022/05/23 05:53:49;;;;;;;;;9.75;9.75;;;;;19.49;72.47;99957.56;5031655;28;50019;-75
2022/05/23 05:56:16;;;;;;;;;12.50;10.50;;;;;19.50;72.90;99956.69;5031933;28;49784;-70
2022/05/23 05:58:41;;;;;;;;;8.00;8.00;;;;;19.62;72.47;99964.34;5031970;28;49733;-75
2022/05/23 06:01:07;;;;;;;;;12.00;11.00;;;;;19.53;72.36;99936.16;5033681;28;49813;-73
2022/05/23 06:03:33;;;;;;;;;10.25;10.25;;;;;19.77;71.95;99934.56;5035244;28;50405;-79
2022/05/23 06:11:27;;;;;;;;;10.25;8.50;;;;;20.02;71.71;99932.06;5035649;28;49766;-68
2022/05/23 06:13:58;;;;;;;;;12.75;12.00;;;;;20.10;71.89;99937.16;5035103;28;49826;-79
2022/05/23 06:16:30;;;;;;;;;11.25;11.00;;;;;20.29;71.21;99955.16;5035322;28;49701;-70
2022/05/23 06:18:56;;;;;;;;;14.00;13.25;;;;;20.41;71.67;99945.91;5035113;28;49773;-70
2022/05/23 06:21:23;;;;;;;;;14.50;14.50;;;;;20.57;70.91;99947.19;5022754;28;49948;-70
2022/05/23 06:23:49;;;;;;;;;12.00;12.00;;;;;20.69;70.62;99940.56;5015599;28;49812;-70
2022/05/23 06:26:16;;;;;;;;;12.00;10.75;;;;;20.83;70.33;99942.75;5015554;28;49834;-70
2022/05/23 06:28:43;;;;;;;;;10.50;10.50;;;;;20.91;69.72;99938.03;5014803;28;49789;-70
2022/05/23 06:31:09;;;;;;;;;9.75;9.75;;;;;20.66;69.01;99892.69;5014889;28;49868;-70
2022/05/23 06:33:36;;;;;;;;;6.50;6.50;;;;;20.71;69.55;99893.38;5014215;28;50465;-70
2022/05/23 06:36:03;;;;;;;;;8.25;7.75;;;;;20.96;68.88;99928.09;5014642;28;50014;-70
2022/05/23 06:38:28;;;;;;;;;10.00;9.00;;;;;21.03;69.47;99923.38;5014166;28;49809;-70
2022/05/23 06:40:54;;;;;;;;;7.50;7.50;;;;;21.01;69.04;99923.44;5014689;28;49980;-70
2022/05/23 06:43:19;;;;;;;;;9.75;9.75;;;;;20.73;69.38;99877.31;4997461;28;52518;-70
2022/05/23 06:45:46;;;;;;;;;9.50;9.50;;;;;21.12;69.13;99928.41;5015564;28;49896;-74
2022/05/23 06:48:11;;;;;;;;;7.00;7.00;;;;;21.11;69.24;99892.84;5015661;28;49887;-70
2022/05/23 06:50:37;;;;;;;;;12.00;9.75;;;;;21.09;68.45;99883.16;5015840;28;49643;-69
2022/05/23 06:53:02;;;;;;;;;7.00;7.00;;;;;21.03;69.20;99864.69;5025017;28;50567;-70
2022/05/23 06:55:28;;;;;;;;;7.00;7.00;;;;;21.09;68.77;99873.34;5016972;28;49657;-72
2022/05/23 06:57:53;;;;;;;;;10.50;8.75;;;;;21.34;68.61;99893.84;5018041;28;49547;-75
2022/05/23 07:00:19;;;;;;;;;7.00;7.00;;;;;21.37;68.31;99891.91;5021883;28;49976;-77
2022/05/23 07:02:45;;;;;;;;;8.00;8.00;;;;;21.49;68.16;99879.03;5021396;28;50824;-74
2022/05/23 07:13:24;;;;;;;;;7.75;7.75;;;;;21.86;68.56;99873.16;5026959;28;50076;-74
2022/05/23 07:15:50;;;;;;;;;9.75;8.75;;;;;21.89;68.41;99881.91;5015309;28;49840;-73
2022/05/23 07:18:17;;;;;;;;;8.50;7.25;;;;;21.86;68.26;99881.16;5034104;28;49787;-73
2022/05/23 07:20:43;;;;;;;;;6.75;6.75;;;;;21.72;67.88;99873.69;5016566;28;49923;-71
2022/05/23 07:23:09;;;;;;;;;8.25;7.00;;;;;21.79;68.27;99885.88;5033797;28;51213;-76
2022/05/23 07:25:35;;;;;;;;;7.25;7.25;;;;;21.78;68.67;99894.81;5033976;28;49698;-71
2022/05/23 07:28:00;;;;;;;;;8.25;7.75;;;;;21.79;68.59;99895.69;5033909;28;49915;-70
2022/05/23 07:30:25;;;;;;;;;8.50;8.50;;;;;21.76;68.47;99898.47;5034238;28;49932;-75
2022/05/23 07:32:51;;;;;;;;;7.25;7.25;;;;;21.71;68.69;99895.97;5016790;28;50447;-73
2022/05/23 07:35:17;;;;;;;;;9.50;9.50;;;;;21.48;68.88;99866.63;5027467;28;49850;-72
2022/05/23 07:37:43;;;;;;;;;10.25;8.25;;;;;21.56;68.88;99900.13;5032080;28;49907;-69
2022/05/23 07:40:09;;;;;;;;;9.50;7.50;;;;;21.35;69.07;99877.75;5024324;28;49602;-71
2022/05/23 07:42:36;;;;;;;;;7.50;6.75;;;;;21.54;69.07;99907.31;5009833;28;52961;-70
2022/05/23 07:45:02;;;;;;;;;10.00;10.00;;;;;21.41;69.05;99880.19;5034071;28;49797;-70
2022/05/23 07:47:28;;;;;;;;;8.00;7.25;;;;;21.47;69.05;99887.09;5031281;28;50046;-67
2022/05/23 07:49:53;;;;;;;;;9.25;9.25;;;;;21.59;68.53;99910.66;5020347;28;49638;-66
2022/05/23 07:52:18;;;;;;;;;6.75;6.75;;;;;21.59;68.52;99912.47;5019558;28;49729;-67
2022/05/23 08:02:57;;;;;;;;;8.50;7.75;;;;;21.84;68.86;99813.56;5033362;28;50154;-65
2022/05/23 08:05:23;;;;;;;;;7.75;7.75;;;;;21.96;68.92;99802.38;5014510;28;49630;-64
2022/05/23 08:07:48;;;;;;;;;9.50;9.50;;;;;21.88;69.22;99807.16;5014101;28;49904;-72
2022/05/23 08:10:13;;;;;;;;;10.00;10.00;;;;;21.90;68.56;99834.66;5014671;28;50172;-71
2022/05/23 08:12:40;;;;;;;;;11.50;9.00;;;;;22.03;68.89;99838.59;5014239;28;50275;-72
2022/05/23 08:15:06;;;;;;;;;10.00;9.00;;;;;22.06;68.08;99843.81;5014300;28;49721;-73
2022/05/23 08:17:32;;;;;;;;;7.75;7.75;;;;;21.58;68.30;99782.53;5013894;28;49679;-73
2022/05/23 08:19:57;;;;;;;;;9.25;9.25;;;;;22.16;68.25;99857.72;5014215;28;49772;-73
2022/05/23 08:22:25;;;;;;;;;7.25;7.25;;;;;22.13;68.61;99858.72;5013912;28;49841;-72
2022/05/23 08:24:50;;;;;;;;;12.00;11.00;;;;;22.11;69.03;99860.59;5015090;28;49773;-70
2022/05/23 08:27:16;;;;;;;;;8.50;7.50;;;;;22.10;69.26;99858.84;5014197;28;49814;-69
2022/05/23 08:29:41;;;;;;;;;9.00;8.00;;;;;22.07;69.43;99844.72;5018052;28;49883;-69
2022/05/23 08:32:10;;;;;;;;;10.50;9.00;;;;;22.14;70.00;99855.09;5013591;28;49636;-70
2022/05/23 08:34:35;;;;;;;;;10.00;10.00;;;;;22.13;69.37;99853.38;5014001;28;49855;-70
2022/05/23 08:37:01;;;;;;;;;9.00;9.00;;;;;22.13;69.24;99864.06;5013634;28;49834;-69
2022/05/23 08:39:26;;;;;;;;;9.50;8.00;;;;;22.02;69.72;99865.41;5020694;28;49773;-69
2022/05/23 08:41:53;;;;;;;;;8.50;7.75;;;;;22.13;69.96;99889.91;5014013;28;51002;-69
2022/05/23 08:44:42;;;;;;;;;8.50;8.50;;;;;21.93;70.13;99896.03;5013656;28;49877;-71
2022/05/23 08:47:18;;;;;;;;;12.75;10.75;;;;;21.84;70.27;99885.69;5013465;28;49842;-69
2022/05/23 08:50:12;;;;;;;;;8.50;7.00;;;;;21.79;70.43;99882.31;5012500;28;49888;-70
2022/05/23 08:52:56;;;;;;;;;9.25;9.00;;;;;21.74;71.07;99879.84;5020492;28;50481;-69
2022/05/23 08:55:30;;;;;;;;;8.75;8.75;;;;;21.59;71.14;99861.72;5027290;28;49798;-69
2022/05/23 08:58:02;;;;;;;;;9.50;9.50;;;;;21.66;71.34;99889.94;5032488;28;49716;-70
2022/05/23 09:00:45;;;;;;;;;14.00;14.00;;;;;21.40;71.22;99874.91;5032852;28;49719;-70
2022/05/23 09:03:26;;;;;;;;;12.50;12.50;;;;;21.34;71.13;99859.13;5031982;28;50962;-67
2022/05/23 09:05:57;;;;;;;;;8.25;8.25;;;;;21.50;70.82;99883.44;5021621;28;49820;-72
2022/05/23 09:08:27;;;;;;;;;12.00;12.00;;;;;21.61;70.82;99897.25;5013367;28;49727;-69
2022/05/23 09:11:03;;;;;;;;;16.75;15.00;;;;;21.50;70.34;99872.75;5016905;28;49824;-69
2022/05/23 09:13:32;;;;;;;;;13.75;13.75;;;;;21.62;70.24;99889.22;5013396;28;50876;-69
2022/05/23 09:16:04;;;;;;;;;19.25;17.00;;;;;21.52;69.37;99850.44;5013206;28;49741;-69
2022/05/23 09:18:40;;;;;;;;;13.75;13.75;;;;;21.74;69.85;99901.22;5013481;28;49544;-69
2022/05/23 09:21:08;;;;;;;;;13.00;13.00;;;;;21.74;70.09;99884.31;5019515;28;49919;-68
2022/05/23 09:23:53;;;;;;;;;16.50;15.00;;;;;21.84;69.19;99891.03;5021230;28;49883;-69
2022/05/23 09:26:28;;;;;;;;;20.50;15.00;;;;;21.94;67.89;99889.75;5023884;28;50313;-69
2022/05/23 09:28:54;;;;;;;;;16.25;15.50;;;;;22.00;66.48;99894.81;5027081;28;49816;-69
2022/05/23 09:31:32;;;;;;;;;13.75;13.75;;;;;22.07;66.60;99860.75;5030856;28;49851;-69
2022/05/23 09:33:59;;;;;;;;;15.25;15.25;;;;;22.25;65.83;99884.94;5012628;28;49914;-69
2022/05/23 09:36:33;;;;;;;;;17.50;17.50;;;;;22.36;65.23;99872.91;5004721;28;49753;-69
2022/05/23 09:39:03;;;;;;;;;17.25;17.25;;;;;22.50;64.75;99886.59;5017161;28;49677;-69
2022/05/23 09:50:08;;;;;;;;;15.75;14.75;;;;;23.60;61.95;99861.19;5035805;28;49749;-69
2022/05/23 09:52:42;;;;;;;;;16.25;16.00;;;;;23.74;61.31;99849.84;5033203;28;49814;-69
2022/05/23 09:55:14;;;;;;;;;15.00;15.00;;;;;23.94;59.66;99857.78;5028868;28;49718;-70
2022/05/23 09:57:52;;;;;;;;;17.75;17.75;;;;;24.01;59.60;99846.75;5031297;28;49882;-73
2022/05/23 10:00:17;;;;;;;;;18.50;18.50;;;;;24.32;59.25;99855.06;5022124;28;49730;-70
2022/05/23 10:02:53;;;;;;;;;15.75;15.75;;;;;24.53;59.58;99850.44;5019653;28;49643;-70
2022/05/23 10:05:31;;;;;;;;;18.50;18.25;;;;;24.73;58.29;99865.50;5019687;28;49896;-69
2022/05/23 10:08:03;;;;;;;;;16.00;14.75;;;;;24.81;57.94;99861.47;5015801;28;49889;-70
2022/05/23 10:10:37;;;;;;;;;19.00;19.00;;;;;24.88;57.60;99845.03;5016304;28;49770;-70
2022/05/23 10:13:31;;;;;;;;;16.75;16.75;;;;;24.99;56.65;99835.44;5016322;28;50089;-69
2022/05/23 10:15:59;;;;;;;;;19.25;18.25;;;;;24.95;56.31;99817.78;5031205;28;50388;-69
2022/05/23 10:18:31;;;;;;;;;17.25;15.50;;;;;25.04;55.98;99836.13;5026142;28;49762;-69
2022/05/23 10:20:58;;;;;;;;;16.00;15.50;;;;;24.92;56.51;99849.31;5016126;28;49835;-70
2022/05/23 10:23:30;;;;;;;;;20.00;20.00;;;;;24.73;56.13;99857.44;5019859;28;49860;-69
2022/05/23 10:26:00;;;;;;;;;18.50;18.00;;;;;24.36;56.53;99837.00;5021657;28;50993;-72
2022/05/23 10:28:47;;;;;;;;;19.00;18.00;;;;;24.19;57.47;99857.44;5016123;28;49715;-72
2022/05/23 10:31:29;;;;;;;;;20.25;17.50;;;;;24.10;58.37;99865.06;5021246;28;49828;-69
2022/05/23 10:34:32;;;;;;;;;20.75;20.00;;;;;23.94;57.87;99863.16;5030143;28;50016;-69
2022/05/23 10:37:01;;;;;;;;;18.75;17.00;;;;;24.15;57.20;99866.59;5017472;28;51990;-70
2022/05/23 10:42:43;;;;;;;;;17.00;17.00;;;;;23.98;55.90;99835.25;5020679;28;49868;-70
2022/05/23 10:45:31;;;;;;;;;19.25;18.25;;;;;24.07;56.50;99857.19;5029359;28;49709;-68
2022/05/23 10:48:05;;;;;;;;;19.50;18.50;;;;;23.99;56.30;99850.38;5029063;28;49922;-69
2022/05/23 10:50:53;;;;;;;;;16.75;16.00;;;;;23.91;56.88;99855.22;5001569;28;49827;-68
2022/05/23 10:53:39;;;;;;;;;18.00;16.75;;;;;23.72;56.68;99857.06;5022327;28;49846;-69
2022/05/23 10:56:35;;;;;;;;;18.25;15.00;;;;;23.42;57.60;99853.97;5017971;28;49620;-68
2022/05/23 10:59:11;;;;;;;;;15.50;15.50;;;;;23.37;59.48;99869.41;5031445;28;50571;-69
2022/05/23 11:01:48;;;;;;;;;17.50;17.50;;;;;23.30;60.05;99865.28;5035025;28;49799;-69
2022/05/23 11:04:28;;;;;;;;;19.75;18.00;;;;;23.19;61.22;99865.75;5023358;28;49970;-71
2022/05/23 11:07:05;;;;;;;;;18.25;18.00;;;;;23.10;62.30;99864.38;5028506;28;49780;-68
2022/05/23 11:09:54;;;;;;;;;16.25;15.25;;;;;22.95;62.78;99866.84;5013129;28;52376;-68
2022/05/23 11:12:20;;;;;;;;;17.25;16.50;;;;;22.72;63.07;99851.78;5034025;28;49618;-68
2022/05/23 11:14:45;;;;;;;;;17.25;17.25;;;;;22.53;64.97;99847.22;5034442;28;49823;-69
2022/05/23 11:17:29;;;;;;;;;14.50;14.50;;;;;22.53;65.15;99873.09;5034347;28;49681;-68
2022/05/23 11:20:16;;;;;;;;;14.75;13.50;;;;;22.27;64.67;99875.03;5014951;28;51430;-68
2022/05/23 11:22:57;;;;;;;;;16.75;16.75;;;;;21.94;65.28;99865.69;5014655;28;49878;-68
2022/05/23 11:25:31;;;;;;;;;20.75;18.25;;;;;21.82;66.18;99867.06;4997098;28;49610;-68
2022/05/23 11:33:41;;;;;;;;;20.75;17.50;;;;;21.45;72.81;99850.72;5034057;28;49590;-68
2022/05/23 11:36:09;;;;;;;;;19.00;18.00;;;;;21.34;75.41;99869.81;5034208;28;49769;-68
2022/05/23 11:38:42;;;;;;;;;21.00;19.25;;;;;21.20;74.50;99872.06;5034218;28;50059;-68
2022/05/23 11:41:32;;;;;;;;;22.75;21.25;;;;;21.32;76.22;99888.53;5033795;28;50565;-68
2022/05/23 11:43:58;;;;;;;;;26.00;24.50;;;;;-142.59;100.00;56100.38;5033843;28;49823;-68
2022/05/23 11:47:04;;;;;;;;;21.75;21.25;;;;;-142.59;100.00;56100.38;5034085;28;49704;-67
2022/05/23 11:49:41;;;;;;;;;24.25;23.25;;;;;-142.59;100.00;56100.38;5034196;28;49867;-68
2022/05/23 11:52:23;;;;;;;;;22.50;22.50;;;;;-142.59;100.00;56100.38;5033347;28;50559;-68
2022/05/23 11:54:48;;;;;;;;;28.50;26.75;;;;;-142.59;100.00;56100.38;5033844;28;49709;-67
2022/05/23 11:57:28;;;;;;;;;25.75;22.75;;;;;-142.59;100.00;56100.38;5033766;28;49875;-67
2022/05/23 11:59:56;;;;;;;;;24.50;24.50;;;;;-142.59;100.00;56100.38;5031264;28;49920;-68
2022/05/23 12:02:26;;;;;;;;;26.50;25.00;;;;;-142.59;100.00;56100.38;5028075;28;50570;-68
2022/05/23 12:04:52;;;;;;;;;24.00;23.75;;;;;-142.59;100.00;56100.38;5034025;28;49842;-69
2022/05/23 12:07:44;;;;;;;;;21.50;21.00;;;;;-142.59;100.00;56100.38;5026008;28;49746;-69
2022/05/23 12:10:39;;;;;;;;;23.75;23.00;;;;;-142.59;100.00;56100.38;5025365;28;49959;-68
2022/05/23 12:13:11;;;;;;;;;24.75;24.00;;;;;-142.59;100.00;56100.38;5019979;28;50951;-69
2022/05/23 12:15:42;;;;;;;;;18.50;18.50;;;;;-142.59;100.00;56100.38;5032255;28;49926;-68
2022/05/23 12:18:20;;;;;;;;;22.00;20.00;;;;;-142.59;100.00;56100.38;5036545;28;49831;-68
2022/05/23 12:20:52;;;;;;;;;19.75;18.75;;;;;-142.59;100.00;56100.38;5034455;28;49720;-69
2022/05/23 12:23:35;;;;;;;;;26.00;23.75;;;;;-142.59;100.00;56100.38;5024752;28;50690;-69
2022/05/23 12:26:25;;;;;;;;;24.25;18.25;;;;;-142.59;100.00;56100.38;5023989;28;49813;-69
2022/05/23 12:28:52;;;;;;;;;29.25;25.50;;;;;-142.59;100.00;56100.38;5025440;28;50098;-69
2022/05/23 12:31:20;;;;;;;;;23.50;20.75;;;;;-142.59;100.00;56100.38;5028830;28;49853;-69
2022/05/23 12:33:51;;;;;;;;;18.00;17.00;;;;;-142.59;100.00;56100.38;5032708;28;50377;-67